M/T Azra S — TCPN3 — position and weather

sailwx.info

Track history (hours):
 
Tides and Currents Weather Stations Pressure Air Temp Water Temp Dewpoint Dewpoint Depression Visibility Wind Speed Wind Dir Waves Ship Positions

M/T Azra S

Last reported at 2018-Feb-20 05:45 UTC. Time now 2018-Feb-21 22:55 UTC.
Position N 37°45' E 024°15'.

Length 105 m; draft 6.7 m.

Type: Ship (hazmat cat B). MMSI: 271000898.

Date/timePositionNaut miles runAvg speedWind from/ knotsBaromVisibWave heightAir tempDewpointWater temp
2018-Feb-20 05:45N 37°45' E 024°15'  
2018-Feb-14 06:38N 40°42' E 029°25'0 0.0
2018-Feb-14 06:20N 40°42' E 029°25'0 1.0
2018-Feb-14 05:57N 40°42' E 029°25'2 4.8
2018-Feb-14 05:30N 40°43' E 029°22'3 5.1
2018-Feb-14 04:58N 40°43' E 029°19'2 4.3
2018-Feb-14 04:30N 40°43' E 029°16'4 7.9
2018-Feb-14 04:00N 40°44' E 029°11'4 8.8
2018-Feb-14 03:30N 40°44' E 029°05'4 9.0
2018-Feb-14 03:00N 40°44' E 028°59'5 9.0
2018-Feb-14 02:28N 40°44' E 028°53'  
Track history (hours):
 
Tides and Currents Weather Stations Pressure Air Temp Water Temp Dewpoint Dewpoint Depression Visibility Wind Speed Wind Dir Waves Ship Positions

M/T Azra S

Last reported at 2018-Feb-20 05:45 UTC. Time now 2018-Feb-21 22:55 UTC.
Position N 37°45' E 024°15'.

Length 105 m; draft 6.7 m.

Type: Ship (hazmat cat B). MMSI: 271000898.

Date/timePositionNaut miles runAvg speedWind from/ knotsBaromVisibWave heightAir tempDewpointWater temp
2018-Feb-20 05:45N 37°45' E 024°15'  
2018-Feb-14 06:38N 40°42' E 029°25'0 0.0
2018-Feb-14 06:20N 40°42' E 029°25'0 1.0
2018-Feb-14 05:57N 40°42' E 029°25'2 4.8
2018-Feb-14 05:30N 40°43' E 029°22'3 5.1
2018-Feb-14 04:58N 40°43' E 029°19'2 4.3
2018-Feb-14 04:30N 40°43' E 029°16'4 7.9
2018-Feb-14 04:00N 40°44' E 029°11'4 8.8
2018-Feb-14 03:30N 40°44' E 029°05'4 9.0
2018-Feb-14 03:00N 40°44' E 028°59'5 9.0
2018-Feb-14 02:28N 40°44' E 028°53'  

Dump ship's entire track history